Time;durP1;ratioP1;P1;durP2;ratioP2;P2;SDS_P1;SDS_P2;PMS_P1;PMS_P2;Temp;Humidity;BMP_temperature;BMP_pressure;BME280_temperature;BME280_humidity;BME280_pressure;Samples;Min_cycle;Max_cycle;Signal;HPM_P1;HPM_P2
2024/01/15 00:01:17;;;;;;;52.58;23.48;;;-1.00;99.90;;;;;;5059309;28;20275;-73
2024/01/15 00:04:04;;;;;;;44.00;22.95;;;-1.20;99.90;;;;;;5063236;28;20279;-73
2024/01/15 00:06:50;;;;;;;46.70;24.45;;;-1.30;99.90;;;;;;5060443;28;20328;-73
2024/01/15 00:09:36;;;;;;;55.15;24.33;;;-1.30;99.90;;;;;;5055530;28;20204;-73
2024/01/15 00:12:21;;;;;;;48.10;22.77;;;-1.30;99.90;;;;;;5055395;28;20274;-73
2024/01/15 00:15:08;;;;;;;43.67;22.45;;;-1.20;99.90;;;;;;5060805;28;20271;-72
2024/01/15 00:17:53;;;;;;;50.30;25.67;;;-1.30;99.90;;;;;;5056746;28;20196;-73
2024/01/15 00:20:40;;;;;;;48.83;22.80;;;-1.30;99.90;;;;;;5061320;28;20231;-73
2024/01/15 00:23:26;;;;;;;43.63;21.90;;;-1.40;99.90;;;;;;5065798;28;20254;-73
2024/01/15 00:26:12;;;;;;;47.20;23.52;;;-1.30;99.90;;;;;;5057743;28;20362;-73
2024/01/15 00:28:58;;;;;;;39.67;20.60;;;-1.30;99.90;;;;;;5057510;28;20240;-73
2024/01/15 00:31:44;;;;;;;49.53;21.85;;;-1.50;99.90;;;;;;5050778;28;20256;-73
2024/01/15 00:34:29;;;;;;;46.42;22.73;;;-1.40;99.90;;;;;;5052644;28;20228;-73
2024/01/15 00:37:16;;;;;;;45.42;21.65;;;-1.20;99.90;;;;;;5062003;28;20722;-73
2024/01/15 00:40:02;;;;;;;49.25;23.17;;;-1.20;99.90;;;;;;5055991;28;20293;-73
2024/01/15 00:42:47;;;;;;;43.45;24.15;;;-1.20;99.90;;;;;;5049594;28;20799;-73
2024/01/15 00:45:33;;;;;;;44.67;23.63;;;-1.30;99.90;;;;;;5057177;28;20805;-73
2024/01/15 00:48:19;;;;;;;46.33;23.30;;;-1.20;99.90;;;;;;5043191;28;20714;-72
2024/01/15 00:51:05;;;;;;;40.65;21.15;;;-1.10;99.90;;;;;;5054674;28;20197;-73
2024/01/15 00:53:52;;;;;;;41.33;22.85;;;-1.10;99.90;;;;;;5056039;28;20347;-72
2024/01/15 00:56:38;;;;;;;39.33;20.70;;;-1.20;99.90;;;;;;5059524;28;20207;-73
2024/01/15 00:59:23;;;;;;;45.25;22.38;;;-1.30;99.90;;;;;;5062480;28;20199;-73
2024/01/15 01:02:09;;;;;;;41.10;20.45;;;-1.30;99.90;;;;;;5066416;28;20213;-73
2024/01/15 01:04:55;;;;;;;43.80;21.02;;;-1.30;99.90;;;;;;5057445;28;20225;-73
2024/01/15 01:07:41;;;;;;;39.58;21.00;;;-1.30;99.90;;;;;;5052938;28;20607;-73
2024/01/15 01:10:28;;;;;;;40.88;20.05;;;-1.30;99.90;;;;;;5057456;28;20201;-72
2024/01/15 01:13:14;;;;;;;42.92;22.15;;;-1.40;99.90;;;;;;5062230;28;20204;-73
2024/01/15 01:15:59;;;;;;;38.42;21.23;;;-1.30;99.90;;;;;;5053670;28;20217;-73
2024/01/15 01:18:45;;;;;;;36.90;19.73;;;-1.20;99.90;;;;;;5063875;28;20294;-73
2024/01/15 01:21:30;;;;;;;41.00;20.92;;;-1.10;99.90;;;;;;5067559;28;20555;-72
2024/01/15 01:24:16;;;;;;;45.13;21.25;;;-1.10;99.90;;;;;;5064185;28;20208;-73
2024/01/15 01:27:03;;;;;;;40.25;20.38;;;-1.10;99.90;;;;;;5051145;28;20228;-73
2024/01/15 01:29:49;;;;;;;35.35;20.42;;;-1.10;99.90;;;;;;5055432;28;20204;-73
2024/01/15 01:32:35;;;;;;;46.00;21.15;;;-1.20;99.90;;;;;;5065642;28;20755;-72
2024/01/15 01:35:20;;;;;;;41.88;20.73;;;-1.30;99.90;;;;;;5063539;28;20227;-73
2024/01/15 01:38:06;;;;;;;39.10;19.75;;;-1.30;99.90;;;;;;5060427;28;20204;-73
2024/01/15 01:40:52;;;;;;;40.20;21.30;;;-1.20;99.90;;;;;;5066054;28;20254;-73
2024/01/15 01:43:39;;;;;;;39.33;19.42;;;-1.20;99.90;;;;;;5057683;28;20208;-73
2024/01/15 01:46:25;;;;;;;40.90;19.95;;;-1.10;99.90;;;;;;5068984;28;20355;-73
2024/01/15 01:49:11;;;;;;;39.20;21.00;;;-1.00;99.90;;;;;;5071752;28;20353;-73
2024/01/15 01:52:00;;;;;;;38.97;21.63;;;-1.00;99.90;;;;;;5068379;28;20245;-72
2024/01/15 01:54:46;;;;;;;39.95;20.38;;;-1.30;99.90;;;;;;5069560;28;20235;-73
2024/01/15 01:57:33;;;;;;;38.33;19.17;;;-1.20;99.90;;;;;;5072980;28;20196;-73
2024/01/15 02:00:20;;;;;;;37.67;21.23;;;-1.20;99.90;;;;;;5057712;28;20215;-72
2024/01/15 02:03:06;;;;;;;43.20;23.55;;;-1.20;99.90;;;;;;5060722;28;20212;-72
2024/01/15 02:05:53;;;;;;;40.30;20.23;;;-1.20;99.90;;;;;;5066306;28;20233;-72
2024/01/15 02:08:39;;;;;;;42.95;21.45;;;-1.30;99.90;;;;;;5068155;28;20243;-72
2024/01/15 02:11:24;;;;;;;38.03;18.95;;;-1.20;99.90;;;;;;5061783;28;20530;-73
2024/01/15 02:14:10;;;;;;;44.13;21.60;;;-1.20;99.90;;;;;;5067544;28;20501;-72
2024/01/15 02:16:57;;;;;;;42.38;21.80;;;-1.20;99.90;;;;;;5058446;28;20525;-72
2024/01/15 02:19:43;;;;;;;42.97;21.75;;;-1.20;99.90;;;;;;5066692;28;20212;-72
2024/01/15 02:22:29;;;;;;;41.88;21.52;;;-1.10;99.90;;;;;;5061875;28;20211;-72
2024/01/15 02:25:16;;;;;;;42.45;22.95;;;-1.00;99.90;;;;;;5063638;28;20228;-72
2024/01/15 02:28:02;;;;;;;43.75;21.58;;;-1.10;99.90;;;;;;5064356;28;20344;-72
2024/01/15 02:30:47;;;;;;;45.78;21.95;;;-1.10;99.90;;;;;;5068753;28;20204;-72
2024/01/15 02:33:33;;;;;;;41.63;20.17;;;-1.00;99.90;;;;;;5065480;28;20219;-72
2024/01/15 02:36:18;;;;;;;44.72;22.25;;;-0.80;99.90;;;;;;5060464;28;20590;-72
2024/01/15 02:39:04;;;;;;;39.95;22.17;;;-0.90;99.90;;;;;;5063866;28;20209;-72
2024/01/15 02:41:51;;;;;;;41.97;20.40;;;-0.80;99.90;;;;;;5056129;28;20217;-72
2024/01/15 02:44:36;;;;;;;42.10;20.10;;;-0.80;99.90;;;;;;5066807;28;20597;-72
2024/01/15 02:47:22;;;;;;;39.53;22.73;;;-0.80;99.90;;;;;;5065702;28;20686;-72
2024/01/15 02:50:08;;;;;;;40.38;19.17;;;-0.70;99.90;;;;;;5056548;28;20201;-72
2024/01/15 02:52:54;;;;;;;42.03;23.27;;;-0.70;99.90;;;;;;5066001;28;20204;-72
2024/01/15 02:55:39;;;;;;;40.47;21.30;;;-0.70;99.90;;;;;;5066018;28;20227;-72
2024/01/15 02:58:26;;;;;;;45.92;22.42;;;-0.80;99.90;;;;;;5065542;28;20570;-72
2024/01/15 03:01:12;;;;;;;47.65;21.65;;;-0.90;99.90;;;;;;5055392;28;20285;-72
2024/01/15 03:03:57;;;;;;;41.55;21.80;;;-0.90;99.90;;;;;;5064266;28;20200;-72
2024/01/15 03:06:43;;;;;;;44.65;20.98;;;-0.90;99.90;;;;;;5058595;28;20555;-72
2024/01/15 03:09:29;;;;;;;44.80;21.08;;;-1.00;99.90;;;;;;5063466;28;20598;-72
2024/01/15 03:12:15;;;;;;;42.15;20.92;;;-0.90;99.90;;;;;;5056423;28;20242;-72
2024/01/15 03:15:02;;;;;;;42.90;22.05;;;-1.10;99.90;;;;;;5061677;28;20563;-72
2024/01/15 03:17:48;;;;;;;39.45;19.60;;;-1.00;99.90;;;;;;5067175;28;20216;-72
2024/01/15 03:20:33;;;;;;;38.40;19.13;;;-1.00;99.90;;;;;;5064960;28;20227;-73
2024/01/15 03:23:19;;;;;;;42.53;19.55;;;-0.90;99.90;;;;;;5063630;28;20691;-72
2024/01/15 03:26:05;;;;;;;42.85;21.08;;;-0.70;99.90;;;;;;5057914;28;20793;-72
2024/01/15 03:28:51;;;;;;;37.47;19.38;;;-0.70;99.90;;;;;;5064440;28;20914;-72
2024/01/15 03:31:38;;;;;;;39.03;20.40;;;-0.60;99.90;;;;;;5061603;28;20266;-72
2024/01/15 03:34:23;;;;;;;37.67;21.40;;;-0.60;99.90;;;;;;5055402;28;20228;-72
2024/01/15 03:37:09;;;;;;;36.40;20.40;;;-0.50;99.90;;;;;;5069065;28;20200;-72
2024/01/15 03:39:55;;;;;;;36.92;20.63;;;-0.50;99.90;;;;;;5064477;28;20590;-72
2024/01/15 03:42:40;;;;;;;36.00;17.77;;;-0.50;99.90;;;;;;5046590;28;20682;-72
2024/01/15 03:45:26;;;;;;;36.63;17.20;;;-0.60;99.90;;;;;;5058821;28;20228;-72
2024/01/15 03:48:13;;;;;;;39.63;20.02;;;-0.60;99.90;;;;;;5065937;28;20586;-72
2024/01/15 03:50:59;;;;;;;37.50;19.90;;;-0.60;99.90;;;;;;5062210;28;20580;-72
2024/01/15 03:53:44;;;;;;;35.38;19.67;;;-0.70;99.90;;;;;;5065202;28;20708;-72
2024/01/15 03:56:30;;;;;;;33.70;18.75;;;-0.70;99.90;;;;;;5063575;28;20531;-72
2024/01/15 03:59:15;;;;;;;38.40;18.60;;;-0.60;99.90;;;;;;5057570;28;20203;-72
2024/01/15 04:02:01;;;;;;;33.58;17.25;;;-0.60;99.90;;;;;;5052363;28;20200;-72
2024/01/15 04:04:48;;;;;;;35.22;19.65;;;-0.60;99.90;;;;;;5067486;28;20232;-72
2024/01/15 04:07:34;;;;;;;37.55;18.05;;;-0.60;99.90;;;;;;5063474;28;20207;-72
2024/01/15 04:10:19;;;;;;;32.38;18.08;;;-0.60;99.90;;;;;;5061075;28;20338;-72
2024/01/15 04:13:05;;;;;;;32.22;16.13;;;-0.50;99.90;;;;;;5063975;28;20275;-72
2024/01/15 04:15:51;;;;;;;36.17;18.27;;;-0.40;99.90;;;;;;5064414;28;20370;-72
2024/01/15 04:18:36;;;;;;;32.10;17.08;;;-0.40;99.90;;;;;;5059833;28;20258;-72
2024/01/15 04:21:23;;;;;;;31.80;16.13;;;-0.40;99.90;;;;;;5058866;28;20420;-72
2024/01/15 04:24:09;;;;;;;32.63;19.67;;;-0.50;99.90;;;;;;5067786;28;20208;-72
2024/01/15 04:26:54;;;;;;;33.50;18.63;;;-0.40;99.90;;;;;;5067486;28;20250;-73
2024/01/15 04:29:40;;;;;;;34.83;18.60;;;-0.40;99.90;;;;;;5060462;28;20703;-72
2024/01/15 04:32:26;;;;;;;35.95;19.00;;;-0.50;99.90;;;;;;5048485;28;20656;-72
2024/01/15 04:35:12;;;;;;;35.20;18.17;;;-0.50;99.90;;;;;;5060927;28;20219;-72
2024/01/15 04:37:59;;;;;;;35.22;17.75;;;-0.60;99.90;;;;;;5054758;28;20570;-72
2024/01/15 04:40:44;;;;;;;35.40;19.05;;;-0.60;99.90;;;;;;5061127;28;20571;-72
2024/01/15 04:43:30;;;;;;;34.70;17.08;;;-0.50;99.90;;;;;;5050646;28;20757;-72
2024/01/15 04:46:16;;;;;;;30.77;16.85;;;-0.40;99.90;;;;;;5055473;28;20705;-72
2024/01/15 04:49:02;;;;;;;37.70;19.70;;;-0.40;99.90;;;;;;5052266;28;20227;-72
2024/01/15 04:51:47;;;;;;;32.08;17.85;;;-0.40;99.90;;;;;;5059567;28;20589;-72
2024/01/15 04:54:35;;;;;;;29.58;17.38;;;-0.40;99.90;;;;;;5053390;28;20661;-72
2024/01/15 04:57:20;;;;;;;29.63;17.30;;;-0.40;99.90;;;;;;5067085;28;20212;-72
2024/01/15 05:00:07;;;;;;;35.30;17.63;;;-0.40;99.90;;;;;;5064295;28;20199;-72
2024/01/15 05:02:53;;;;;;;28.88;15.65;;;-0.30;99.90;;;;;;5067061;28;20254;-72
2024/01/15 05:05:38;;;;;;;35.30;19.10;;;-0.30;99.90;;;;;;5059061;28;20236;-72
2024/01/15 05:08:24;;;;;;;32.67;17.05;;;-0.20;99.90;;;;;;5052119;28;20224;-72
2024/01/15 05:11:11;;;;;;;28.20;17.63;;;-0.20;99.90;;;;;;5054971;28;20633;-72
2024/01/15 05:13:56;;;;;;;34.53;18.95;;;-0.20;99.90;;;;;;5058294;28;20200;-72
2024/01/15 05:16:48;;;;;;;30.13;15.50;;;-0.20;99.90;;;;;;5048552;28;20252;-72
2024/01/15 05:19:33;;;;;;;32.72;18.00;;;-0.20;99.90;;;;;;5054024;28;20592;-73
2024/01/15 05:22:19;;;;;;;31.58;17.85;;;-0.10;99.90;;;;;;5061302;28;20673;-72
2024/01/15 05:25:05;;;;;;;31.50;18.00;;;-0.10;99.90;;;;;;5089490;22;20615;-73
2024/01/15 05:27:53;;;;;;;30.80;16.83;;;-0.10;99.90;;;;;;5060422;28;20208;-73
2024/01/15 05:30:38;;;;;;;34.28;17.17;;;-0.10;99.90;;;;;;5058865;28;20212;-73
2024/01/15 05:33:24;;;;;;;31.05;17.10;;;-0.20;99.90;;;;;;5062779;28;20219;-73
2024/01/15 05:36:09;;;;;;;27.88;14.77;;;-0.20;99.90;;;;;;5055655;28;20308;-73
2024/01/15 05:38:55;;;;;;;30.77;15.77;;;-0.10;99.90;;;;;;5067920;28;20323;-73
2024/01/15 05:41:40;;;;;;;33.28;17.20;;;-0.10;99.90;;;;;;5060324;28;20207;-72
2024/01/15 05:44:26;;;;;;;34.30;18.13;;;-0.20;99.90;;;;;;5068730;28;20203;-73
2024/01/15 05:47:12;;;;;;;29.95;14.15;;;-0.30;99.90;;;;;;5067172;28;20785;-73
2024/01/15 05:49:58;;;;;;;32.72;17.00;;;-0.40;99.90;;;;;;5052059;28;20224;-73
2024/01/15 05:52:43;;;;;;;30.30;15.05;;;-0.40;99.90;;;;;;5053564;28;20201;-73
2024/01/15 05:55:29;;;;;;;29.45;15.25;;;-0.40;99.90;;;;;;5062147;28;20294;-73
2024/01/15 05:58:14;;;;;;;30.80;16.77;;;-0.40;99.90;;;;;;5045619;28;20205;-73
2024/01/15 06:01:01;;;;;;;30.77;17.45;;;-0.40;99.90;;;;;;5054275;28;20193;-74
2024/01/15 06:03:47;;;;;;;29.55;15.98;;;-0.50;99.90;;;;;;5070077;28;20561;-73
2024/01/15 06:06:32;;;;;;;31.75;17.75;;;-0.50;99.90;;;;;;5062677;28;20228;-73
2024/01/15 06:09:18;;;;;;;28.63;16.10;;;-0.40;99.90;;;;;;5061711;28;20227;-73
2024/01/15 06:12:04;;;;;;;32.63;16.00;;;-0.40;99.90;;;;;;5057254;28;20572;-73
2024/01/15 06:14:50;;;;;;;32.45;18.80;;;-0.30;99.90;;;;;;5057405;28;20230;-73
2024/01/15 06:17:37;;;;;;;29.40;16.90;;;-0.40;99.90;;;;;;5068466;28;20208;-73
2024/01/15 06:20:23;;;;;;;31.90;17.20;;;-0.30;99.90;;;;;;5064137;28;20255;-73
2024/01/15 06:23:08;;;;;;;34.15;15.82;;;-0.40;99.90;;;;;;5064580;28;20217;-73
2024/01/15 06:25:54;;;;;;;37.13;19.38;;;-0.40;99.90;;;;;;5051033;28;20321;-73
2024/01/15 06:28:40;;;;;;;34.55;18.83;;;-0.30;99.90;;;;;;5061757;28;20759;-73
2024/01/15 06:31:25;;;;;;;36.58;21.67;;;-0.30;99.90;;;;;;5047558;28;20208;-73
2024/01/15 06:34:12;;;;;;;33.90;19.15;;;-0.30;99.90;;;;;;5070986;28;20316;-74
2024/01/15 06:36:58;;;;;;;40.92;20.10;;;-0.30;99.90;;;;;;5069963;28;20287;-73
2024/01/15 06:39:44;;;;;;;43.83;27.63;;;-0.30;99.90;;;;;;5065152;28;20200;-73
2024/01/15 06:42:29;;;;;;;27.20;16.58;;;-0.30;99.90;;;;;;5041834;28;20197;-73
2024/01/15 06:45:15;;;;;;;45.25;21.10;;;-0.40;99.90;;;;;;5064041;28;20220;-73
2024/01/15 06:48:00;;;;;;;37.03;23.40;;;-0.40;99.90;;;;;;5058926;28;20209;-73
2024/01/15 06:50:48;;;;;;;36.38;19.92;;;-0.30;99.90;;;;;;5056938;28;20299;-73
2024/01/15 06:53:33;;;;;;;32.65;17.63;;;-0.20;99.90;;;;;;5060560;28;20253;-73
2024/01/15 06:56:19;;;;;;;35.25;19.33;;;-0.20;99.90;;;;;;5063866;28;20239;-72
2024/01/15 06:59:05;;;;;;;33.65;20.52;;;-0.20;99.90;;;;;;5072194;28;20204;-73
2024/01/15 07:01:50;;;;;;;32.28;18.70;;;-0.10;99.90;;;;;;5049997;28;20208;-73
2024/01/15 07:04:36;;;;;;;31.80;17.90;;;0.00;99.90;;;;;;5062759;28;20210;-73
2024/01/15 07:07:23;;;;;;;34.20;20.30;;;0.00;99.90;;;;;;5068347;28;20284;-74
2024/01/15 07:10:10;;;;;;;32.78;18.17;;;0.00;99.90;;;;;;5066255;28;20223;-73
2024/01/15 07:12:55;;;;;;;34.05;17.42;;;0.10;99.90;;;;;;5048090;28;20280;-73
2024/01/15 07:15:41;;;;;;;24.52;16.05;;;0.00;99.90;;;;;;5057309;28;20310;-73
2024/01/15 07:18:27;;;;;;;29.80;17.13;;;0.10;99.90;;;;;;5059545;28;20721;-73
2024/01/15 07:21:12;;;;;;;26.52;15.57;;;0.10;99.90;;;;;;5052531;28;21610;-73
2024/01/15 07:23:59;;;;;;;29.83;18.30;;;0.10;99.90;;;;;;5050242;28;20575;-73
2024/01/15 07:26:44;;;;;;;30.75;19.40;;;0.20;99.90;;;;;;5063750;28;20231;-74
2024/01/15 07:29:30;;;;;;;25.83;15.35;;;0.20;99.90;;;;;;5041325;28;20224;-73
2024/01/15 07:32:16;;;;;;;28.85;17.00;;;0.20;99.90;;;;;;5051160;28;20568;-73
2024/01/15 07:35:01;;;;;;;32.13;15.95;;;0.20;99.90;;;;;;5051237;28;20879;-73
2024/01/15 07:37:47;;;;;;;30.98;17.63;;;0.20;99.90;;;;;;5051372;28;20529;-73
2024/01/15 07:40:34;;;;;;;28.88;13.57;;;0.30;99.90;;;;;;5047094;28;20204;-73
2024/01/15 07:43:20;;;;;;;29.88;15.27;;;0.30;99.90;;;;;;5055472;28;20203;-73
2024/01/15 07:46:06;;;;;;;26.73;14.68;;;0.30;99.90;;;;;;5054444;28;20589;-73
2024/01/15 07:48:56;;;;;;;28.45;16.23;;;0.40;99.90;;;;;;5052129;28;20200;-73
2024/01/15 07:51:43;;;;;;;28.95;17.83;;;0.50;99.90;;;;;;5051091;28;20607;-73
2024/01/15 07:54:29;;;;;;;32.70;17.92;;;0.40;99.90;;;;;;5047429;28;20606;-73
2024/01/15 07:57:16;;;;;;;29.27;17.90;;;0.40;99.90;;;;;;5047298;28;20204;-73
2024/01/15 08:00:01;;;;;;;30.92;16.83;;;0.20;99.90;;;;;;5053635;28;20230;-73
2024/01/15 08:02:47;;;;;;;30.33;16.08;;;0.30;99.90;;;;;;5050644;28;20251;-73
2024/01/15 08:05:32;;;;;;;30.10;18.38;;;0.40;99.90;;;;;;5052664;28;20225;-73
2024/01/15 08:08:18;;;;;;;29.67;16.02;;;0.30;99.90;;;;;;5047183;28;20221;-73
2024/01/15 08:11:04;;;;;;;28.38;15.68;;;0.40;99.90;;;;;;5043923;28;20224;-73
2024/01/15 08:13:52;;;;;;;28.70;16.90;;;0.40;99.90;;;;;;5040836;28;20594;-73
2024/01/15 08:16:37;;;;;;;28.10;16.17;;;0.20;99.90;;;;;;5048818;28;20221;-73
2024/01/15 08:19:23;;;;;;;28.70;15.00;;;0.30;99.90;;;;;;5060184;28;20201;-73
2024/01/15 08:22:09;;;;;;;30.08;15.40;;;0.20;99.90;;;;;;5064831;28;20196;-73
2024/01/15 08:24:55;;;;;;;26.92;13.75;;;0.30;99.90;;;;;;5053192;28;20224;-73
2024/01/15 08:27:40;;;;;;;32.28;16.40;;;0.30;99.90;;;;;;5047292;28;20201;-73
2024/01/15 08:30:27;;;;;;;26.92;16.83;;;0.40;99.90;;;;;;5044679;28;20229;-73
2024/01/15 08:33:13;;;;;;;30.85;15.90;;;0.40;99.90;;;;;;5051754;28;20282;-73
2024/01/15 08:35:58;;;;;;;31.35;17.55;;;0.40;99.90;;;;;;5052032;28;20349;-73
2024/01/15 08:38:44;;;;;;;27.48;15.45;;;0.50;99.90;;;;;;5047437;28;20216;-73
2024/01/15 08:41:30;;;;;;;32.63;16.00;;;0.50;99.90;;;;;;5049536;28;20264;-73
2024/01/15 08:44:16;;;;;;;32.33;20.20;;;0.50;99.90;;;;;;5052642;28;20204;-73
2024/01/15 08:47:03;;;;;;;30.65;18.77;;;0.50;99.90;;;;;;5051947;28;20332;-73
2024/01/15 08:49:49;;;;;;;28.85;16.35;;;0.50;99.90;;;;;;5057755;28;20350;-73
2024/01/15 08:52:35;;;;;;;28.70;18.40;;;0.60;99.90;;;;;;5052018;28;20204;-70
2024/01/15 08:55:22;;;;;;;28.55;16.40;;;0.60;99.90;;;;;;5053372;28;20351;-73
2024/01/15 08:58:07;;;;;;;29.10;15.98;;;0.60;99.90;;;;;;5060307;28;20339;-73
2024/01/15 09:00:53;;;;;;;34.45;18.13;;;0.70;99.90;;;;;;5056306;28;20205;-73
2024/01/15 09:03:41;;;;;;;31.08;16.88;;;0.70;99.90;;;;;;5049225;28;20382;-73
2024/01/15 09:06:27;;;;;;;31.92;17.17;;;0.70;99.90;;;;;;5059266;28;20267;-73
2024/01/15 09:09:12;;;;;;;28.88;16.05;;;0.60;99.90;;;;;;5053780;28;20405;-73
2024/01/15 09:11:58;;;;;;;34.58;21.30;;;0.60;99.90;;;;;;5040026;28;20201;-73
2024/01/15 09:14:44;;;;;;;34.35;16.88;;;0.70;99.90;;;;;;5040744;28;20221;-74
2024/01/15 09:17:29;;;;;;;31.30;16.70;;;0.70;99.90;;;;;;5046346;28;20263;-73
2024/01/15 09:20:17;;;;;;;32.60;17.33;;;0.80;99.90;;;;;;5058401;28;20200;-73
2024/01/15 09:23:03;;;;;;;27.77;15.80;;;0.80;99.90;;;;;;5042470;28;20567;-73
2024/01/15 09:25:49;;;;;;;26.83;16.42;;;0.80;99.90;;;;;;5057269;28;20743;-73
2024/01/15 09:28:35;;;;;;;31.85;18.80;;;0.80;99.90;;;;;;5039581;28;20488;-73
2024/01/15 09:31:21;;;;;;;32.70;19.63;;;0.70;99.90;;;;;;5061644;28;20663;-73
2024/01/15 09:34:06;;;;;;;34.13;19.70;;;0.80;99.90;;;;;;5054516;28;20670;-73
2024/01/15 09:36:53;;;;;;;35.92;20.55;;;0.80;99.90;;;;;;5048109;28;20204;-73
2024/01/15 09:39:39;;;;;;;32.25;17.90;;;0.80;99.90;;;;;;5047535;28;20258;-73
2024/01/15 09:42:26;;;;;;;25.80;17.90;;;0.80;99.90;;;;;;5041376;28;20212;-73
2024/01/15 09:45:12;;;;;;;28.17;18.65;;;0.80;99.90;;;;;;5054931;28;20275;-73
2024/01/15 09:47:57;;;;;;;28.13;16.95;;;0.80;99.90;;;;;;5043642;28;20209;-74
2024/01/15 09:50:43;;;;;;;32.90;16.52;;;0.70;99.90;;;;;;5047674;28;20706;-73
2024/01/15 09:53:30;;;;;;;32.40;18.00;;;0.80;99.90;;;;;;5052257;28;20584;-74
2024/01/15 09:56:17;;;;;;;30.48;17.98;;;0.80;99.90;;;;;;5051051;28;20314;-74
2024/01/15 09:59:03;;;;;;;28.48;18.38;;;0.80;99.90;;;;;;5046051;28;20218;-73
2024/01/15 10:01:51;;;;;;;32.42;18.63;;;0.80;99.90;;;;;;5050164;28;20251;-73
2024/01/15 10:04:37;;;;;;;30.15;18.58;;;0.80;99.90;;;;;;5058079;28;20313;-73
2024/01/15 10:07:24;;;;;;;28.42;15.75;;;0.70;99.90;;;;;;5062242;28;20200;-73
2024/01/15 10:10:12;;;;;;;35.80;18.15;;;0.70;99.90;;;;;;5059170;28;20359;-73
2024/01/15 10:12:59;;;;;;;30.95;19.48;;;0.60;99.90;;;;;;5052571;28;20288;-73
2024/01/15 10:15:47;;;;;;;25.42;16.83;;;0.60;99.90;;;;;;5045925;28;20224;-73
2024/01/15 10:18:33;;;;;;;26.15;18.38;;;0.60;99.90;;;;;;5051253;28;20208;-73
2024/01/15 10:21:19;;;;;;;29.20;18.40;;;0.50;99.90;;;;;;5059873;28;20203;-73
2024/01/15 10:24:06;;;;;;;34.00;18.92;;;0.60;99.90;;;;;;5055375;28;20335;-74
2024/01/15 10:26:53;;;;;;;29.65;18.17;;;0.70;99.90;;;;;;5054253;28;20247;-73
2024/01/15 10:29:38;;;;;;;37.78;18.52;;;0.60;99.90;;;;;;5051854;28;20672;-73
2024/01/15 10:32:24;;;;;;;31.00;17.58;;;0.60;99.90;;;;;;5065566;28;20212;-73
2024/01/15 10:35:10;;;;;;;32.28;17.08;;;0.70;99.90;;;;;;5052594;28;20583;-73
2024/01/15 10:37:56;;;;;;;31.33;19.35;;;0.80;99.90;;;;;;5054925;28;20197;-73
2024/01/15 10:40:42;;;;;;;29.08;18.25;;;0.80;99.90;;;;;;5053092;28;20197;-73
2024/01/15 10:43:29;;;;;;;31.40;19.95;;;0.80;99.90;;;;;;5057359;28;20645;-72
2024/01/15 10:46:15;;;;;;;80.10;32.83;;;0.70;99.90;;;;;;5050667;28;20231;-73
2024/01/15 10:49:00;;;;;;;39.45;20.15;;;0.70;99.90;;;;;;5051149;28;20205;-72
2024/01/15 10:51:46;;;;;;;34.03;19.83;;;0.70;99.90;;;;;;5060032;28;20291;-73
2024/01/15 10:54:33;;;;;;;34.65;19.55;;;0.80;99.90;;;;;;5053215;28;20271;-73
2024/01/15 10:57:21;;;;;;;34.30;22.33;;;0.80;99.90;;;;;;5042504;28;20599;-74
2024/01/15 11:00:14;;;;;;;36.83;22.40;;;0.90;99.90;;;;;;5056989;28;20204;-74
2024/01/15 11:03:02;;;;;;;35.17;20.30;;;1.00;99.90;;;;;;5053049;28;20705;-72
2024/01/15 11:05:48;;;;;;;31.35;19.35;;;0.90;99.90;;;;;;5056163;28;20295;-75
2024/01/15 11:08:34;;;;;;;31.60;19.85;;;1.00;99.90;;;;;;5057864;28;20200;-76
2024/01/15 11:11:23;;;;;;;33.83;21.67;;;1.00;99.90;;;;;;5053665;28;20602;-75
2024/01/15 11:14:09;;;;;;;32.72;21.25;;;0.90;99.90;;;;;;5057262;28;20344;-75
2024/01/15 11:17:00;;;;;;;35.60;22.98;;;0.90;99.90;;;;;;5055291;28;20787;-75
2024/01/15 11:19:46;;;;;;;39.53;24.13;;;1.00;99.90;;;;;;5052245;28;20746;-73
2024/01/15 11:22:50;;;;;;;33.50;19.45;;;1.00;99.90;;;;;;5058727;28;20335;-73
2024/01/15 11:25:38;;;;;;;36.63;20.10;;;1.00;99.90;;;;;;5061518;22;20361;-71
2024/01/15 11:28:48;;;;;;;35.08;20.92;;;1.00;99.90;;;;;;5037863;28;20332;-70
2024/01/15 11:32:07;;;;;;;31.63;21.63;;;1.00;99.90;;;;;;5037186;28;20596;-70
2024/01/15 11:34:57;;;;;;;28.20;17.25;;;1.10;99.90;;;;;;5033606;28;20205;-71
2024/01/15 11:37:58;;;;;;;30.75;18.10;;;1.10;99.90;;;;;;5032441;28;20205;-71
2024/01/15 11:40:47;;;;;;;29.85;17.80;;;1.10;99.90;;;;;;5038464;28;20275;-71
2024/01/15 11:43:33;;;;;;;28.67;18.75;;;1.20;99.90;;;;;;5042177;28;20205;-72
2024/01/15 11:46:20;;;;;;;26.90;17.70;;;1.20;99.90;;;;;;5043918;28;20232;-72
2024/01/15 11:49:11;;;;;;;29.58;17.02;;;1.20;99.90;;;;;;5044786;28;20213;-71
2024/01/15 11:51:59;;;;;;;31.00;19.42;;;1.30;99.90;;;;;;5045577;28;20220;-70
2024/01/15 11:54:55;;;;;;;31.70;20.05;;;1.20;99.90;;;;;;5040487;28;20209;-73
2024/01/15 11:57:47;;;;;;;29.90;19.20;;;1.10;99.90;;;;;;5037479;28;20232;-71
2024/01/15 12:00:33;;;;;;;31.10;20.20;;;1.10;99.90;;;;;;5037997;28;20260;-71
2024/01/15 12:03:21;;;;;;;27.05;18.63;;;1.20;99.90;;;;;;5038269;28;20200;-71
2024/01/15 12:06:09;;;;;;;26.52;17.98;;;1.20;99.90;;;;;;5038582;28;20681;-72
2024/01/15 12:09:07;;;;;;;36.22;23.23;;;1.20;99.90;;;;;;5045514;28;20301;-71
2024/01/15 12:12:00;;;;;;;30.48;20.67;;;1.10;99.90;;;;;;5037744;28;20216;-76
2024/01/15 12:14:46;;;;;;;28.50;19.83;;;1.00;99.90;;;;;;5038346;28;20204;-72
2024/01/15 12:17:31;;;;;;;28.85;18.08;;;1.00;99.90;;;;;;5029954;28;20209;-71
2024/01/15 12:20:18;;;;;;;28.05;17.80;;;1.10;99.90;;;;;;5041742;28;20210;-72
2024/01/15 12:23:05;;;;;;;28.65;17.30;;;1.00;99.90;;;;;;5042393;28;20200;-71
2024/01/15 12:25:51;;;;;;;25.75;18.83;;;1.10;99.90;;;;;;5038103;28;20241;-72
2024/01/15 12:28:39;;;;;;;26.30;16.15;;;1.20;99.90;;;;;;5025626;28;20321;-72
2024/01/15 12:31:25;;;;;;;25.45;15.98;;;1.20;99.90;;;;;;5030458;28;20232;-72
2024/01/15 12:34:10;;;;;;;29.38;17.83;;;1.30;99.90;;;;;;5034218;28;20773;-72
2024/01/15 12:36:58;;;;;;;31.42;18.20;;;1.30;99.90;;;;;;5030909;28;20249;-71
2024/01/15 12:39:45;;;;;;;26.20;16.10;;;1.30;99.90;;;;;;5038555;28;20217;-73
2024/01/15 12:42:31;;;;;;;23.77;16.60;;;1.30;99.90;;;;;;5043796;28;20208;-72
2024/01/15 12:45:17;;;;;;;23.67;16.80;;;1.40;99.90;;;;;;5030727;28;20245;-72
2024/01/15 12:48:03;;;;;;;25.15;15.40;;;1.50;99.90;;;;;;5034245;28;20318;-73
2024/01/15 12:50:48;;;;;;;22.63;14.48;;;1.50;99.90;;;;;;5038558;28;20224;-74
2024/01/15 12:53:34;;;;;;;20.73;15.00;;;1.60;99.90;;;;;;5040551;28;20220;-71
2024/01/15 12:56:21;;;;;;;25.65;16.30;;;1.50;99.90;;;;;;5043061;28;20635;-70
2024/01/15 12:59:07;;;;;;;24.08;13.65;;;1.50;99.90;;;;;;5035061;28;20584;-73
2024/01/15 13:01:52;;;;;;;24.65;14.98;;;1.60;99.90;;;;;;5035959;28;20554;-73
2024/01/15 13:04:39;;;;;;;23.42;13.27;;;1.60;99.90;;;;;;5041134;28;20212;-71
2024/01/15 13:07:25;;;;;;;22.95;15.00;;;1.70;99.90;;;;;;5045920;28;20212;-72
2024/01/15 13:10:10;;;;;;;17.50;13.07;;;1.70;99.90;;;;;;5036395;28;20205;-72
2024/01/15 13:12:58;;;;;;;17.60;12.88;;;1.60;99.90;;;;;;5036597;28;20663;-71
2024/01/15 13:15:43;;;;;;;21.92;14.73;;;1.60;99.90;;;;;;5042000;28;20229;-73
2024/01/15 13:18:30;;;;;;;16.70;12.18;;;1.60;99.90;;;;;;5040934;28;20210;-72
2024/01/15 13:21:16;;;;;;;20.90;13.70;;;1.70;99.90;;;;;;5041198;28;20695;-73
2024/01/15 13:24:03;;;;;;;24.55;11.70;;;1.70;99.90;;;;;;5042652;28;20197;-74
2024/01/15 13:26:48;;;;;;;19.88;12.38;;;1.60;99.90;;;;;;5042707;28;20355;-73
2024/01/15 13:29:35;;;;;;;16.70;12.07;;;1.70;99.90;;;;;;5040422;28;20209;-71
2024/01/15 13:32:26;;;;;;;20.55;11.98;;;1.70;99.90;;;;;;5042853;28;20215;-71
2024/01/15 13:35:13;;;;;;;22.92;12.45;;;1.60;99.90;;;;;;5040904;28;20228;-75
2024/01/15 13:37:59;;;;;;;16.65;12.00;;;1.70;99.90;;;;;;5035384;28;20201;-72
2024/01/15 13:40:45;;;;;;;20.27;13.25;;;1.70;99.90;;;;;;5045514;28;20327;-72
2024/01/15 13:43:32;;;;;;;21.17;13.00;;;1.60;99.90;;;;;;5042691;28;20213;-73
2024/01/15 13:46:19;;;;;;;19.98;11.90;;;1.60;99.90;;;;;;5042669;28;20221;-72
2024/01/15 13:49:05;;;;;;;20.17;13.05;;;1.70;99.90;;;;;;5033962;28;20249;-72
2024/01/15 13:51:51;;;;;;;20.58;12.68;;;1.70;99.90;;;;;;5042512;28;20205;-72
2024/01/15 13:54:38;;;;;;;16.38;11.95;;;1.70;99.90;;;;;;5044788;28;20209;-71
2024/01/15 13:57:23;;;;;;;18.50;12.65;;;1.70;99.90;;;;;;5046467;28;20208;-72
2024/01/15 14:00:11;;;;;;;26.83;13.85;;;1.70;99.90;;;;;;5031185;28;20236;-72
2024/01/15 14:02:58;;;;;;;19.67;13.45;;;1.70;99.90;;;;;;5039706;28;20202;-72
2024/01/15 14:05:44;;;;;;;21.33;12.55;;;1.60;99.90;;;;;;5044331;28;20275;-72
2024/01/15 14:08:29;;;;;;;18.42;12.07;;;1.70;99.90;;;;;;5034650;28;20205;-73